createdAt,value
2023-05-01T00:00:29.751Z,0.50
2023-05-01T00:01:29.761Z,0.50
2023-05-01T00:02:29.896Z,0.50
2023-05-01T00:03:29.924Z,0.50
2023-05-01T00:04:29.830Z,0.50
2023-05-01T00:05:29.818Z,0.51
2023-05-01T00:06:29.853Z,0.51
2023-05-01T00:07:29.866Z,0.50
2023-05-01T00:08:29.940Z,0.52
2023-05-01T00:09:30.039Z,0.52
2023-05-01T00:10:30.132Z,0.49
2023-05-01T00:11:30.419Z,0.50
2023-05-01T00:12:30.194Z,0.50
2023-05-01T00:13:30.276Z,0.50
2023-05-01T00:14:30.298Z,0.52
2023-05-01T00:15:30.378Z,0.62
2023-05-01T00:16:30.480Z,0.73
2023-05-01T00:17:30.499Z,0.80
2023-05-01T00:18:30.543Z,0.80
2023-05-01T00:19:30.612Z,0.82
2023-05-01T00:20:30.700Z,0.83
2023-05-01T00:21:30.749Z,0.80
2023-05-01T00:22:30.819Z,0.84
2023-05-01T00:23:30.922Z,0.86
2023-05-01T00:24:30.970Z,0.90
2023-05-01T00:25:31.024Z,0.94
2023-05-01T00:26:31.146Z,0.92
2023-05-01T00:27:31.130Z,0.82
2023-05-01T00:28:31.175Z,0.80
2023-05-01T00:29:31.213Z,0.88
2023-05-01T00:30:31.206Z,0.91
2023-05-01T00:31:31.279Z,1.19
2023-05-01T00:32:31.274Z,0.89
2023-05-01T00:33:31.275Z,0.92
2023-05-01T00:34:31.266Z,1.01
2023-05-01T00:35:31.334Z,1.00
2023-05-01T00:36:31.276Z,1.08
2023-05-01T00:37:31.303Z,0.98
2023-05-01T00:38:31.321Z,0.85
2023-05-01T00:39:31.308Z,0.84
2023-05-01T00:40:31.319Z,0.88
2023-05-01T00:41:31.334Z,0.89
2023-05-01T00:42:31.372Z,0.86
2023-05-01T00:43:31.365Z,0.88
2023-05-01T00:44:31.398Z,0.85
2023-05-01T00:45:31.447Z,0.85
2023-05-01T00:46:31.544Z,0.88
2023-05-01T00:47:31.501Z,0.98
2023-05-01T00:48:31.457Z,1.17
2023-05-01T00:49:31.485Z,1.01
2023-05-01T00:50:31.510Z,0.80
2023-05-01T00:51:31.497Z,0.71
2023-05-01T00:52:31.506Z,0.75
2023-05-01T00:53:31.529Z,0.85
2023-05-01T00:54:31.575Z,0.97
2023-05-01T00:55:31.621Z,0.93
2023-05-01T00:56:31.642Z,0.88
2023-05-01T00:57:31.699Z,0.93
2023-05-01T00:58:31.735Z,0.93
2023-05-01T00:59:31.720Z,0.86
2023-05-01T01:00:31.776Z,0.73
2023-05-01T01:01:31.764Z,0.92
2023-05-01T01:02:31.742Z,1.01
2023-05-01T01:03:31.747Z,0.95
2023-05-01T01:04:31.860Z,0.94
2023-05-01T01:05:31.761Z,0.96
2023-05-01T01:06:31.791Z,0.90
2023-05-01T01:07:31.768Z,1.02
2023-05-01T01:08:32.762Z,0.97
2023-05-01T01:09:31.811Z,0.91
2023-05-01T01:10:31.788Z,0.92
2023-05-01T01:11:31.802Z,0.88
2023-05-01T01:12:31.826Z,0.86
2023-05-01T01:13:31.854Z,0.87
2023-05-01T01:14:31.903Z,0.87
2023-05-01T01:15:31.914Z,0.90
2023-05-01T01:16:32.010Z,0.90
2023-05-01T01:17:32.094Z,0.91
2023-05-01T01:18:31.971Z,0.97
2023-05-01T01:19:32.081Z,0.98
2023-05-01T01:20:32.059Z,1.08
2023-05-01T01:21:32.117Z,1.14
2023-05-01T01:22:32.150Z,1.20
2023-05-01T01:23:32.186Z,1.20
2023-05-01T01:24:32.232Z,1.31
2023-05-01T01:25:32.220Z,1.42
2023-05-01T01:26:32.235Z,1.48
2023-05-01T01:27:32.936Z,1.29
2023-05-01T01:28:32.265Z,1.31
2023-05-01T01:29:32.353Z,1.35
2023-05-01T01:30:32.534Z,1.43
2023-05-01T01:31:32.365Z,1.49
2023-05-01T01:32:32.437Z,1.52
2023-05-01T01:33:32.383Z,1.83
2023-05-01T01:34:32.421Z,2.22
2023-05-01T01:35:32.421Z,2.78
2023-05-01T01:36:32.413Z,3.00
2023-05-01T01:37:32.439Z,3.13
2023-05-01T01:38:32.469Z,3.61
2023-05-01T01:39:32.496Z,3.95
2023-05-01T01:40:32.522Z,4.04
2023-05-01T01:41:32.532Z,3.75
2023-05-01T01:42:32.549Z,3.70
2023-05-01T01:43:32.555Z,4.06
2023-05-01T01:44:32.542Z,4.48
2023-05-01T01:45:32.562Z,4.94
2023-05-01T01:46:32.684Z,5.40
2023-05-01T01:47:32.711Z,5.82
2023-05-01T01:48:32.637Z,6.44
2023-05-01T01:49:32.660Z,6.76
2023-05-01T01:50:32.715Z,6.58
2023-05-01T01:51:32.689Z,7.92
2023-05-01T01:52:32.707Z,8.12
2023-05-01T01:53:32.730Z,8.00
2023-05-01T01:54:32.770Z,8.12
2023-05-01T01:55:32.805Z,8.16
2023-05-01T01:56:32.789Z,7.03
2023-05-01T01:57:32.807Z,3.93
2023-05-01T01:58:32.820Z,2.93
2023-05-01T01:59:32.845Z,2.62
2023-05-01T02:00:32.891Z,2.23
2023-05-01T02:01:32.926Z,2.15
2023-05-01T02:02:32.969Z,2.18
2023-05-01T02:03:32.970Z,2.36
2023-05-01T02:04:32.923Z,2.42
2023-05-01T02:05:33.003Z,2.21
2023-05-01T02:06:33.021Z,2.51
2023-05-01T02:07:32.963Z,3.01
2023-05-01T02:08:32.992Z,3.77
2023-05-01T02:09:33.004Z,4.49
2023-05-01T02:10:33.026Z,4.76
2023-05-01T02:11:33.046Z,4.81
2023-05-01T02:12:33.065Z,4.51
2023-05-01T02:13:33.121Z,4.02
2023-05-01T02:14:33.115Z,4.16
2023-05-01T02:15:33.139Z,4.14
2023-05-01T02:16:33.171Z,4.73
2023-05-01T02:17:33.231Z,5.38
2023-05-01T02:18:33.220Z,5.20
2023-05-01T02:19:33.222Z,5.05
2023-05-01T02:20:33.264Z,4.84
2023-05-01T02:21:33.281Z,4.36
2023-05-01T02:22:33.305Z,4.28
2023-05-01T02:23:33.328Z,5.06
2023-05-01T02:24:33.354Z,4.87
2023-05-01T02:25:33.388Z,4.61
2023-05-01T02:26:33.419Z,4.81
2023-05-01T02:27:33.446Z,5.14
2023-05-01T02:28:33.483Z,5.27
2023-05-01T02:29:33.493Z,5.01
2023-05-01T02:30:33.538Z,4.69
2023-05-01T02:31:33.593Z,4.44
2023-05-01T02:32:33.592Z,4.68
2023-05-01T02:33:33.593Z,4.38
2023-05-01T02:34:33.653Z,3.93
2023-05-01T02:35:33.668Z,4.23
2023-05-01T02:36:33.704Z,4.54
2023-05-01T02:37:33.723Z,4.68
2023-05-01T02:38:33.755Z,4.01
2023-05-01T02:39:33.788Z,3.83
2023-05-01T02:40:33.826Z,3.78
2023-05-01T02:41:33.868Z,3.76
2023-05-01T02:42:33.873Z,4.42
2023-05-01T02:43:33.899Z,4.63
2023-05-01T02:44:33.916Z,4.42
2023-05-01T02:45:33.979Z,4.49
2023-05-01T02:46:34.081Z,4.63
2023-05-01T02:47:34.072Z,5.04
2023-05-01T02:48:34.012Z,5.38
2023-05-01T02:49:34.033Z,5.83
2023-05-01T02:50:34.072Z,6.22
2023-05-01T02:51:34.076Z,6.09
2023-05-01T02:52:34.089Z,5.97
2023-05-01T02:53:34.125Z,5.82
2023-05-01T02:54:34.143Z,5.85
2023-05-01T02:55:34.165Z,5.02
2023-05-01T02:56:34.176Z,5.16
2023-05-01T02:57:34.202Z,3.74
2023-05-01T02:58:34.229Z,3.03
2023-05-01T02:59:34.252Z,2.67
2023-05-01T03:00:34.280Z,2.26
2023-05-01T03:01:34.339Z,2.13
2023-05-01T03:02:34.388Z,1.68
2023-05-01T03:03:34.383Z,1.28
2023-05-01T03:04:34.433Z,1.28
2023-05-01T03:05:34.453Z,1.16
2023-05-01T03:06:34.513Z,1.32
2023-05-01T03:07:34.453Z,1.53
2023-05-01T03:08:34.471Z,1.82
2023-05-01T03:09:34.495Z,2.19
2023-05-01T03:10:34.516Z,2.55
2023-05-01T03:11:34.561Z,3.41
2023-05-01T03:12:34.589Z,4.56
2023-05-01T03:13:34.657Z,5.80
2023-05-01T03:14:34.628Z,6.30
2023-05-01T03:15:34.647Z,6.85
2023-05-01T03:16:34.708Z,7.12
2023-05-01T03:17:34.727Z,7.30
2023-05-01T03:18:34.738Z,7.23
2023-05-01T03:19:34.711Z,7.71
2023-05-01T03:20:34.769Z,8.17
2023-05-01T03:21:34.775Z,8.96
2023-05-01T03:22:34.820Z,9.87
2023-05-01T03:23:34.793Z,10.95
2023-05-01T03:24:34.818Z,12.23
2023-05-01T03:25:34.818Z,13.71
2023-05-01T03:26:34.856Z,14.89
2023-05-01T03:27:34.877Z,15.41
2023-05-01T03:28:34.889Z,17.36
2023-05-01T03:29:34.897Z,17.85
2023-05-01T03:30:34.924Z,18.93
2023-05-01T03:31:34.970Z,19.06
2023-05-01T03:32:34.978Z,20.22
2023-05-01T03:33:34.949Z,20.56
2023-05-01T03:34:34.980Z,18.51
2023-05-01T03:35:35.056Z,17.36
2023-05-01T03:36:35.047Z,14.00
2023-05-01T03:37:35.024Z,11.81
2023-05-01T03:38:35.058Z,12.20
2023-05-01T03:39:35.071Z,9.82
2023-05-01T03:40:35.079Z,8.48
2023-05-01T03:41:35.098Z,8.11
2023-05-01T03:42:35.097Z,8.65
2023-05-01T03:43:35.115Z,9.21
2023-05-01T03:44:35.161Z,9.67
2023-05-01T03:45:35.199Z,10.00
2023-05-01T03:46:35.241Z,9.90
2023-05-01T03:47:35.297Z,9.91
2023-05-01T03:48:35.281Z,9.84
2023-05-01T03:49:35.305Z,10.10
2023-05-01T03:50:35.328Z,10.45
2023-05-01T03:51:35.361Z,10.99
2023-05-01T03:52:35.350Z,11.43
2023-05-01T03:53:35.369Z,11.46
2023-05-01T03:54:35.403Z,11.17
2023-05-01T03:55:35.376Z,11.48
2023-05-01T03:56:35.427Z,11.08
2023-05-01T03:57:35.401Z,11.17
2023-05-01T03:58:35.399Z,11.41
2023-05-01T03:59:35.435Z,11.65
2023-05-01T04:00:35.456Z,11.88
2023-05-01T04:01:35.493Z,12.21
2023-05-01T04:02:35.603Z,12.92
2023-05-01T04:03:35.613Z,13.40
2023-05-01T04:04:35.715Z,14.06
2023-05-01T04:05:35.646Z,16.43
2023-05-01T04:06:35.692Z,18.92
2023-05-01T04:07:35.688Z,21.00
2023-05-01T04:08:35.697Z,22.86
2023-05-01T04:09:35.706Z,24.77
2023-05-01T04:10:35.758Z,26.25
2023-05-01T04:11:35.765Z,28.16
2023-05-01T04:12:35.777Z,29.41
2023-05-01T04:13:35.825Z,29.48
2023-05-01T04:14:35.855Z,29.92
2023-05-01T04:15:35.893Z,24.08
2023-05-01T04:16:36.027Z,17.46
2023-05-01T04:17:36.124Z,14.22
2023-05-01T04:18:36.097Z,11.93
2023-05-01T04:19:36.128Z,11.92
2023-05-01T04:20:36.172Z,11.06
2023-05-01T04:21:36.235Z,11.03
2023-05-01T04:22:36.238Z,10.74
2023-05-01T04:23:36.261Z,10.80
2023-05-01T04:24:36.280Z,11.12
2023-05-01T04:25:36.324Z,13.82
2023-05-01T04:26:36.355Z,14.47
2023-05-01T04:27:36.322Z,13.01
2023-05-01T04:28:36.332Z,12.24
2023-05-01T04:29:36.336Z,10.95
2023-05-01T04:30:36.341Z,10.38
2023-05-01T04:31:36.507Z,9.48
2023-05-01T04:32:36.409Z,9.59
2023-05-01T04:33:36.391Z,10.73
2023-05-01T04:34:36.396Z,12.10
2023-05-01T04:35:36.418Z,13.14
2023-05-01T04:36:36.486Z,13.66
2023-05-01T04:37:36.484Z,14.70
2023-05-01T04:38:36.520Z,15.45
2023-05-01T04:39:36.547Z,16.13
2023-05-01T04:40:36.595Z,16.05
2023-05-01T04:41:36.664Z,16.95
2023-05-01T04:42:36.682Z,17.25
2023-05-01T04:43:36.699Z,17.64
2023-05-01T04:44:36.756Z,18.29
2023-05-01T04:45:36.832Z,17.70
2023-05-01T04:46:36.996Z,16.93
2023-05-01T04:47:37.019Z,16.58
2023-05-01T04:48:37.101Z,17.07
2023-05-01T04:49:37.121Z,18.53
2023-05-01T04:50:37.166Z,19.55
2023-05-01T04:51:37.270Z,22.79
2023-05-01T04:52:37.253Z,25.85
2023-05-01T04:53:37.279Z,28.19
2023-05-01T04:54:37.310Z,30.27
2023-05-01T04:55:37.343Z,28.11
2023-05-01T04:56:37.400Z,23.57
2023-05-01T04:57:37.390Z,19.53
2023-05-01T04:58:37.437Z,16.19
2023-05-01T04:59:37.432Z,14.49
2023-05-01T05:00:37.460Z,13.24
2023-05-01T05:01:37.604Z,12.64
2023-05-01T05:02:37.641Z,12.56
2023-05-01T05:03:37.771Z,10.90
2023-05-01T05:04:37.578Z,9.35
2023-05-01T05:05:37.642Z,10.21
2023-05-01T05:06:37.694Z,12.55
2023-05-01T05:07:37.651Z,15.85
2023-05-01T05:08:37.673Z,17.92
2023-05-01T05:09:37.667Z,20.64
2023-05-01T05:10:37.675Z,21.58
2023-05-01T05:11:37.724Z,18.77
2023-05-01T05:12:37.729Z,17.12
2023-05-01T05:13:37.729Z,13.03
2023-05-01T05:14:37.789Z,10.93
2023-05-01T05:15:37.763Z,10.57
2023-05-01T05:16:38.233Z,10.25
2023-05-01T05:17:37.879Z,9.06
2023-05-01T05:18:37.849Z,7.21
2023-05-01T05:19:37.898Z,6.27
2023-05-01T05:20:37.924Z,5.62
2023-05-01T05:21:38.024Z,5.19
2023-05-01T05:22:38.026Z,5.33
2023-05-01T05:23:38.073Z,4.83
2023-05-01T05:24:38.116Z,5.18
2023-05-01T05:25:38.174Z,7.00
2023-05-01T05:26:38.168Z,7.90
2023-05-01T05:27:38.185Z,8.83
2023-05-01T05:28:38.139Z,9.13
2023-05-01T05:29:38.163Z,9.69
2023-05-01T05:30:38.244Z,10.05
2023-05-01T05:31:38.369Z,9.86
2023-05-01T05:32:38.362Z,9.76
2023-05-01T05:33:38.349Z,10.18
2023-05-01T05:34:38.408Z,10.62
2023-05-01T05:35:38.454Z,10.97
2023-05-01T05:36:38.562Z,11.47
2023-05-01T05:37:38.563Z,11.92
2023-05-01T05:38:38.616Z,12.49
2023-05-01T05:39:38.672Z,13.19
2023-05-01T05:40:38.708Z,13.29
2023-05-01T05:41:38.772Z,13.44
2023-05-01T05:42:38.793Z,13.20
2023-05-01T05:43:38.832Z,12.55
2023-05-01T05:44:38.886Z,12.66
2023-05-01T05:45:39.003Z,13.15
2023-05-01T05:46:39.113Z,13.59
2023-05-01T05:47:39.132Z,13.02
2023-05-01T05:48:39.090Z,13.21
2023-05-01T05:49:39.141Z,13.14
2023-05-01T05:50:39.192Z,13.18
2023-05-01T05:51:39.264Z,13.86
2023-05-01T05:52:39.296Z,13.60
2023-05-01T05:53:39.357Z,13.07
2023-05-01T05:54:39.419Z,13.52
2023-05-01T05:55:39.464Z,13.98
2023-05-01T05:56:39.516Z,14.30
2023-05-01T05:57:39.545Z,14.32
2023-05-01T05:58:39.600Z,15.51
2023-05-01T05:59:39.634Z,16.36
2023-05-01T06:00:39.681Z,17.83
2023-05-01T06:01:39.721Z,18.75
2023-05-01T06:02:40.040Z,18.29
2023-05-01T06:03:40.096Z,19.71
2023-05-01T06:04:39.850Z,20.09
2023-05-01T06:05:39.899Z,20.46
2023-05-01T06:06:39.886Z,20.15
2023-05-01T06:07:39.846Z,19.09
2023-05-01T06:08:39.861Z,19.70
2023-05-01T06:09:39.879Z,19.84
2023-05-01T06:10:39.908Z,20.30
2023-05-01T06:11:39.955Z,23.70
2023-05-01T06:12:42.086Z,25.73
2023-05-01T06:13:39.952Z,25.03
2023-05-01T06:14:39.898Z,24.38
2023-05-01T06:15:39.914Z,25.11
2023-05-01T06:16:39.949Z,25.91
2023-05-01T06:17:39.893Z,25.21
2023-05-01T06:18:39.847Z,23.41
2023-05-01T06:19:39.801Z,21.04
2023-05-01T06:20:39.784Z,19.29
2023-05-01T06:21:39.765Z,17.36
2023-05-01T06:22:39.736Z,16.37
2023-05-01T06:23:39.700Z,16.69
2023-05-01T06:24:39.699Z,13.90
2023-05-01T06:25:39.695Z,13.76
2023-05-01T06:26:39.629Z,11.81
2023-05-01T06:27:39.604Z,8.58
2023-05-01T06:28:39.573Z,6.79
2023-05-01T06:29:39.561Z,6.50
2023-05-01T06:30:39.536Z,5.81
2023-05-01T06:31:39.571Z,5.45
2023-05-01T06:32:39.554Z,6.16
2023-05-01T06:33:39.482Z,5.13
2023-05-01T06:34:39.485Z,4.83
2023-05-01T06:35:39.421Z,4.86
2023-05-01T06:36:39.404Z,5.15
2023-05-01T06:37:39.459Z,6.18
2023-05-01T06:38:39.344Z,6.22
2023-05-01T06:39:39.313Z,6.23
2023-05-01T06:40:39.290Z,5.79
2023-05-01T06:41:39.257Z,5.41
2023-05-01T06:42:39.237Z,5.74
2023-05-01T06:43:39.213Z,6.16
2023-05-01T06:44:39.189Z,7.51
2023-05-01T06:45:39.147Z,8.43
2023-05-01T06:46:39.241Z,7.05
2023-05-01T06:47:39.097Z,6.52
2023-05-01T06:48:39.060Z,6.98
2023-05-01T06:49:39.039Z,7.26
2023-05-01T06:50:39.049Z,7.60
2023-05-01T06:51:38.962Z,8.10
2023-05-01T06:52:38.934Z,8.33
2023-05-01T06:53:38.902Z,9.07
2023-05-01T06:54:38.885Z,9.46
2023-05-01T06:55:38.814Z,9.87
2023-05-01T06:56:38.779Z,9.92
2023-05-01T06:57:38.737Z,9.46
2023-05-01T06:58:38.698Z,11.87
2023-05-01T06:59:38.656Z,10.71
2023-05-01T07:00:38.739Z,9.73
2023-05-01T07:01:38.657Z,7.43
2023-05-01T07:02:38.793Z,6.50
2023-05-01T07:03:38.722Z,4.84
2023-05-01T07:04:38.669Z,4.06
2023-05-01T07:05:38.704Z,3.68
2023-05-01T07:06:38.741Z,3.01
2023-05-01T07:07:42.252Z,2.79
2023-05-01T07:08:38.665Z,2.43
2023-05-01T07:09:38.612Z,1.82
2023-05-01T07:10:40.532Z,1.65
2023-05-01T07:11:38.551Z,1.32
2023-05-01T07:12:38.564Z,1.37
2023-05-01T07:13:38.459Z,1.06
2023-05-01T07:14:38.414Z,0.94
2023-05-01T07:15:38.364Z,0.88
2023-05-01T07:16:38.376Z,0.86
2023-05-01T07:17:38.344Z,0.84
2023-05-01T07:18:38.272Z,0.91
2023-05-01T07:19:38.227Z,0.96
2023-05-01T07:20:38.201Z,1.01
2023-05-01T07:21:38.143Z,1.05
2023-05-01T07:22:38.137Z,1.01
2023-05-01T07:23:38.090Z,0.97
2023-05-01T07:24:38.047Z,0.91
2023-05-01T07:25:38.004Z,0.87
2023-05-01T07:26:37.971Z,0.66
2023-05-01T07:27:37.933Z,0.85
2023-05-01T07:28:37.877Z,1.47
2023-05-01T07:29:37.837Z,2.21
2023-05-01T07:30:37.802Z,3.29
2023-05-01T07:31:37.899Z,3.41
2023-05-01T07:32:37.794Z,3.23
2023-05-01T07:33:37.654Z,3.01
2023-05-01T07:34:37.666Z,2.25
2023-05-01T07:35:37.670Z,2.43
2023-05-01T07:36:37.684Z,1.94
2023-05-01T07:37:37.679Z,1.61
2023-05-01T07:38:38.490Z,1.08
2023-05-01T07:39:37.700Z,1.08
2023-05-01T07:40:37.698Z,0.84
2023-05-01T07:41:37.708Z,0.92
2023-05-01T07:42:37.748Z,1.18
2023-05-01T07:43:37.720Z,1.51
2023-05-01T07:44:37.744Z,1.72
2023-05-01T07:45:37.802Z,1.80
2023-05-01T07:46:38.024Z,1.26
2023-05-01T07:47:37.893Z,1.27
2023-05-01T07:48:39.013Z,0.65
2023-05-01T07:49:37.722Z,0.60
2023-05-01T07:50:37.696Z,0.65
2023-05-01T07:51:37.707Z,0.60
2023-05-01T07:52:37.696Z,0.69
2023-05-01T07:53:37.669Z,0.49
2023-05-01T07:54:37.676Z,0.38
2023-05-01T07:55:37.635Z,0.37
2023-05-01T07:56:37.565Z,0.34
2023-05-01T07:57:37.514Z,0.34
2023-05-01T07:58:37.443Z,0.38
2023-05-01T07:59:37.372Z,0.34
2023-05-01T08:00:37.306Z,0.34
2023-05-01T08:01:37.282Z,0.34
2023-05-01T08:02:37.354Z,0.34
2023-05-01T08:03:37.352Z,0.34
2023-05-01T08:04:37.281Z,0.34
2023-05-01T08:05:37.082Z,0.40
2023-05-01T08:06:37.133Z,0.48
2023-05-01T08:07:36.998Z,0.52
2023-05-01T08:08:36.962Z,0.46
2023-05-01T08:09:36.902Z,0.66
2023-05-01T08:10:36.898Z,0.42
2023-05-01T08:11:36.816Z,0.43
2023-05-01T08:12:36.806Z,0.54
2023-05-01T08:13:36.723Z,0.65
2023-05-01T08:14:36.672Z,0.64
2023-05-01T08:15:36.675Z,0.74
2023-05-01T08:16:36.660Z,0.63
2023-05-01T08:17:36.662Z,0.59
2023-05-01T08:18:36.590Z,0.83
2023-05-01T08:19:36.567Z,0.93
2023-05-01T08:20:36.541Z,0.97
2023-05-01T08:21:36.498Z,0.84
2023-05-01T08:22:36.440Z,1.63
2023-05-01T08:23:36.393Z,1.23
2023-05-01T08:24:36.348Z,1.42
2023-05-01T08:25:36.330Z,1.51
2023-05-01T08:26:36.294Z,1.62
2023-05-01T08:27:36.229Z,1.08
2023-05-01T08:28:36.166Z,0.77
2023-05-01T08:29:36.139Z,0.45
2023-05-01T08:30:36.138Z,0.44
2023-05-01T08:31:36.240Z,0.49
2023-05-01T08:32:36.128Z,0.47
2023-05-01T08:33:36.032Z,0.47
2023-05-01T08:34:35.974Z,0.34
2023-05-01T08:35:35.890Z,0.34
2023-05-01T08:36:35.822Z,0.34
2023-05-01T08:37:35.746Z,0.34
2023-05-01T08:38:35.685Z,0.34
2023-05-01T08:39:35.613Z,0.34
2023-05-01T08:40:35.544Z,0.34
2023-05-01T08:41:35.497Z,0.34
2023-05-01T08:42:35.470Z,0.34
2023-05-01T08:43:35.423Z,0.34
2023-05-01T08:44:35.391Z,0.34
2023-05-01T08:45:35.353Z,0.34
2023-05-01T08:46:35.401Z,0.53
2023-05-01T08:47:35.300Z,0.52
2023-05-01T08:48:35.227Z,0.34
2023-05-01T08:49:35.182Z,0.34
2023-05-01T08:50:35.155Z,0.34
2023-05-01T08:51:35.090Z,0.46
2023-05-01T08:52:35.061Z,0.45
2023-05-01T08:53:34.948Z,0.34
2023-05-01T08:54:34.843Z,0.34
2023-05-01T08:55:34.734Z,0.47
2023-05-01T08:56:34.654Z,0.60
2023-05-01T08:57:34.596Z,0.84
2023-05-01T08:58:34.556Z,0.97
2023-05-01T08:59:34.481Z,1.26
2023-05-01T09:00:34.413Z,0.90
2023-05-01T09:01:34.418Z,0.66
2023-05-01T09:02:34.354Z,0.61
2023-05-01T09:03:34.203Z,0.41
2023-05-01T09:04:34.055Z,0.40
2023-05-01T09:05:33.952Z,0.39
2023-05-01T09:06:34.005Z,0.35
2023-05-01T09:07:33.806Z,0.48
2023-05-01T09:08:33.665Z,1.06
2023-05-01T09:09:33.560Z,1.00
2023-05-01T09:10:33.480Z,0.93
2023-05-01T09:11:33.358Z,0.62
2023-05-01T09:12:33.354Z,1.35
2023-05-01T09:13:33.276Z,0.98
2023-05-01T09:14:33.216Z,0.81
2023-05-01T09:15:33.149Z,0.59
2023-05-01T09:16:33.133Z,0.46
2023-05-01T09:17:33.104Z,0.42
2023-05-01T09:18:32.957Z,0.44
2023-05-01T09:19:32.901Z,0.56
2023-05-01T09:20:32.835Z,0.37
2023-05-01T09:21:32.731Z,0.48
2023-05-01T09:22:32.686Z,0.47
2023-05-01T09:23:32.571Z,0.66
2023-05-01T09:24:32.480Z,1.14
2023-05-01T09:25:32.431Z,1.70
2023-05-01T09:26:32.369Z,1.69
2023-05-01T09:27:32.309Z,1.94
2023-05-01T09:28:32.234Z,1.02
2023-05-01T09:29:32.152Z,0.58
2023-05-01T09:30:32.082Z,0.48
2023-05-01T09:31:31.951Z,0.54
2023-05-01T09:32:31.865Z,0.51
2023-05-01T09:33:31.737Z,0.44
2023-05-01T09:34:31.594Z,0.51
2023-05-01T09:35:31.507Z,0.38
2023-05-01T09:36:31.438Z,0.61
2023-05-01T09:37:31.353Z,0.34
2023-05-01T09:38:31.240Z,0.34
2023-05-01T09:39:31.136Z,0.48
2023-05-01T09:40:31.059Z,0.60
2023-05-01T09:41:30.928Z,0.58
2023-05-01T09:42:30.817Z,0.62
2023-05-01T09:43:30.700Z,0.76
2023-05-01T09:44:30.592Z,1.07
2023-05-01T09:45:30.493Z,0.74
2023-05-01T09:46:30.510Z,0.65
2023-05-01T09:47:30.433Z,0.58
2023-05-01T09:48:32.001Z,0.53
2023-05-01T09:49:30.170Z,0.53
2023-05-01T09:50:30.054Z,0.56
2023-05-01T09:51:29.955Z,0.72
2023-05-01T09:52:29.852Z,1.53
2023-05-01T09:53:29.740Z,2.13
2023-05-01T09:54:29.566Z,1.36
2023-05-01T09:55:29.473Z,1.71
2023-05-01T09:56:29.312Z,1.48
2023-05-01T09:57:29.194Z,1.32
2023-05-01T09:58:29.072Z,2.08
2023-05-01T09:59:28.931Z,2.75
2023-05-01T10:00:28.802Z,6.52
2023-05-01T10:01:28.695Z,4.94
2023-05-01T10:02:28.690Z,2.70
2023-05-01T10:03:28.544Z,2.21
2023-05-01T10:04:28.276Z,2.23
2023-05-01T10:05:28.138Z,1.90
2023-05-01T10:06:28.080Z,1.87
2023-05-01T10:07:27.869Z,1.46
2023-05-01T10:08:27.752Z,1.29
2023-05-01T10:09:27.601Z,2.25
2023-05-01T10:10:27.470Z,1.53
2023-05-01T10:11:27.387Z,1.85
2023-05-01T10:12:27.193Z,2.07
2023-05-01T10:13:27.059Z,1.44
2023-05-01T10:14:27.239Z,1.74
2023-05-01T10:15:27.191Z,2.86
2023-05-01T10:16:26.680Z,1.86
2023-05-01T10:17:26.598Z,1.41
2023-05-01T10:18:26.459Z,1.60
2023-05-01T10:19:26.345Z,0.95
2023-05-01T10:20:26.238Z,1.13
2023-05-01T10:21:26.141Z,1.09
2023-05-01T10:22:26.055Z,1.46
2023-05-01T10:23:25.947Z,1.75
2023-05-01T10:24:25.855Z,3.07
2023-05-01T10:25:25.739Z,2.16
2023-05-01T10:26:25.638Z,4.43
2023-05-01T10:27:25.645Z,10.72
2023-05-01T10:28:25.570Z,30.13
2023-05-01T10:29:25.518Z,71.98
2023-05-01T10:30:25.491Z,182.95
2023-05-01T10:31:25.596Z,469.14
2023-05-01T10:32:25.534Z,1000.00
2023-05-01T10:33:25.453Z,1000.00
2023-05-01T10:34:27.063Z,1000.00
2023-05-01T10:35:25.371Z,1000.00
2023-05-01T10:36:25.323Z,1000.00
2023-05-01T10:37:25.220Z,1000.00
2023-05-01T10:38:25.160Z,1000.00
2023-05-01T10:39:25.100Z,1000.00
2023-05-01T10:40:25.049Z,1000.00
2023-05-01T10:41:25.003Z,1000.00
2023-05-01T10:42:24.994Z,1000.00
2023-05-01T10:43:24.921Z,1000.00
2023-05-01T10:44:25.308Z,1000.00
2023-05-01T10:45:24.843Z,1000.00
2023-05-01T10:46:24.881Z,1000.00
2023-05-01T10:47:24.953Z,1000.00
2023-05-01T10:48:24.705Z,1000.00
2023-05-01T10:49:24.654Z,1000.00
2023-05-01T10:50:24.618Z,1000.00
2023-05-01T10:51:27.256Z,1000.00
2023-05-01T10:52:24.485Z,1000.00
2023-05-01T10:53:24.432Z,1000.00
2023-05-01T10:54:24.376Z,1000.00
2023-05-01T10:55:24.344Z,1000.00
2023-05-01T10:56:24.254Z,1000.00
2023-05-01T10:57:24.199Z,1000.00
2023-05-01T10:58:24.140Z,1000.00
2023-05-01T10:59:24.094Z,1000.00
2023-05-01T11:00:24.029Z,1000.00
2023-05-01T11:01:23.993Z,1000.00
2023-05-01T11:02:24.015Z,1000.00
2023-05-01T11:03:23.853Z,1000.00
2023-05-01T11:04:23.804Z,1000.00
2023-05-01T11:05:35.763Z,1000.00
2023-05-01T11:06:23.785Z,1000.00
2023-05-01T11:07:23.624Z,1000.00
2023-05-01T11:08:23.528Z,1000.00
2023-05-01T11:09:23.452Z,1000.00
2023-05-01T11:10:23.391Z,1000.00
2023-05-01T11:11:23.339Z,1000.00
2023-05-01T11:12:23.333Z,1000.00
2023-05-01T11:13:23.232Z,1000.00
2023-05-01T11:14:23.161Z,1000.00
2023-05-01T11:15:23.106Z,1000.00
2023-05-01T11:16:23.077Z,1000.00
2023-05-01T11:17:23.010Z,1000.00
2023-05-01T11:18:22.950Z,1000.00
2023-05-01T11:19:22.877Z,1000.00
2023-05-01T11:20:22.805Z,1000.00
2023-05-01T11:21:22.742Z,1000.00
2023-05-01T11:22:22.786Z,1000.00
2023-05-01T11:23:22.621Z,1000.00
2023-05-01T11:24:22.535Z,1000.00
2023-05-01T11:25:22.480Z,1000.00
2023-05-01T11:26:22.395Z,735.50
2023-05-01T11:27:22.322Z,784.81
2023-05-01T11:28:22.250Z,1000.00
2023-05-01T11:29:22.162Z,1000.00
2023-05-01T11:30:22.088Z,1000.00
2023-05-01T11:31:22.036Z,1000.00
2023-05-01T11:32:22.043Z,402.02
2023-05-01T11:33:21.907Z,343.14
2023-05-01T11:34:21.757Z,357.24
2023-05-01T11:35:21.709Z,661.46
2023-05-01T11:36:21.581Z,338.99
2023-05-01T11:37:21.486Z,387.82
2023-05-01T11:38:21.446Z,352.24
2023-05-01T11:39:21.303Z,296.00
2023-05-01T11:40:21.260Z,225.24
2023-05-01T11:41:21.150Z,258.95
2023-05-01T11:42:21.198Z,260.35
2023-05-01T11:43:21.012Z,182.71
2023-05-01T11:44:20.940Z,136.34
2023-05-01T11:45:20.907Z,70.57
2023-05-01T11:46:20.895Z,101.36
2023-05-01T11:47:20.892Z,149.95
2023-05-01T11:48:20.823Z,193.64
2023-05-01T11:49:20.793Z,168.23
2023-05-01T11:50:20.791Z,164.77
2023-05-01T11:51:20.803Z,197.17
2023-05-01T11:52:20.806Z,148.43
2023-05-01T11:53:20.829Z,123.37
2023-05-01T11:54:20.943Z,149.51
2023-05-01T11:55:20.789Z,254.12
2023-05-01T11:56:26.776Z,275.44
2023-05-01T11:57:20.693Z,118.54
2023-05-01T11:58:20.653Z,63.52
2023-05-01T11:59:20.564Z,49.42
2023-05-01T12:00:20.507Z,42.41
2023-05-01T12:01:20.447Z,36.18
2023-05-01T12:02:20.413Z,46.24
2023-05-01T12:03:20.563Z,39.76
2023-05-01T12:04:20.295Z,38.90
2023-05-01T12:05:20.155Z,55.82
2023-05-01T12:06:20.125Z,61.86
2023-05-01T12:07:20.050Z,60.03
2023-05-01T12:08:19.957Z,59.91
2023-05-01T12:09:19.893Z,84.60
2023-05-01T12:10:19.867Z,66.46
2023-05-01T12:11:19.784Z,57.27
2023-05-01T12:12:19.723Z,94.12
2023-05-01T12:13:19.678Z,64.76
2023-05-01T12:14:19.613Z,84.09
2023-05-01T12:15:19.552Z,44.21
2023-05-01T12:16:19.527Z,37.18
2023-05-01T12:17:19.481Z,31.52
2023-05-01T12:18:19.406Z,40.91
2023-05-01T12:19:21.037Z,55.70
2023-05-01T12:20:19.265Z,92.13
2023-05-01T12:21:19.126Z,158.01
2023-05-01T12:22:19.068Z,308.72
2023-05-01T12:23:19.011Z,1000.00
2023-05-01T12:24:18.943Z,1000.00
2023-05-01T12:25:18.864Z,1000.00
2023-05-01T12:26:18.939Z,1000.00
2023-05-01T12:27:18.745Z,1000.00
2023-05-01T12:28:18.686Z,1000.00
2023-05-01T12:29:18.618Z,1000.00
2023-05-01T12:30:18.557Z,1000.00
2023-05-01T12:31:18.502Z,1000.00
2023-05-01T12:32:18.428Z,1000.00
2023-05-01T12:33:18.654Z,1000.00
2023-05-01T12:34:18.304Z,1000.00
2023-05-01T12:35:18.195Z,1000.00
2023-05-01T12:36:18.111Z,1000.00
2023-05-01T12:37:18.045Z,1000.00
2023-05-01T12:38:17.971Z,1000.00
2023-05-01T12:39:17.862Z,1000.00
2023-05-01T12:40:17.787Z,1000.00
2023-05-01T12:41:17.701Z,1000.00
2023-05-01T12:42:17.643Z,1000.00
2023-05-01T12:43:17.531Z,1000.00
2023-05-01T12:44:17.455Z,1000.00
2023-05-01T12:45:17.390Z,1000.00
2023-05-01T12:46:17.338Z,1000.00
2023-05-01T12:47:17.254Z,1000.00
2023-05-01T12:48:17.316Z,1000.00
2023-05-01T12:49:17.114Z,1000.00
2023-05-01T12:50:17.051Z,1000.00
2023-05-01T12:51:16.993Z,1000.00
2023-05-01T12:52:16.920Z,1000.00
2023-05-01T12:53:16.973Z,1000.00
2023-05-01T12:54:16.785Z,1000.00
2023-05-01T12:55:16.689Z,1000.00
2023-05-01T12:56:16.626Z,1000.00
2023-05-01T12:57:16.577Z,1000.00
2023-05-01T12:58:16.486Z,1000.00
2023-05-01T12:59:16.372Z,1000.00
2023-05-01T13:00:16.284Z,1000.00